sensor_id;sensor_type;location;lat;lon;timestamp;temperature;humidity
71367;DHT22;60030;52.274;8.040;2022-07-29T00:00:09;19.00;76.70
71367;DHT22;60030;52.274;8.040;2022-07-29T00:02:37;18.90;77.30
71367;DHT22;60030;52.274;8.040;2022-07-29T00:05:07;19.00;77.10
71367;DHT22;60030;52.274;8.040;2022-07-29T00:07:34;19.20;76.20
71367;DHT22;60030;52.274;8.040;2022-07-29T00:10:02;19.10;76.60
71367;DHT22;60030;52.274;8.040;2022-07-29T00:12:29;18.80;77.30
71367;DHT22;60030;52.274;8.040;2022-07-29T00:14:56;18.90;77.50
71367;DHT22;60030;52.274;8.040;2022-07-29T00:17:24;18.80;77.40
71367;DHT22;60030;52.274;8.040;2022-07-29T00:19:51;19.00;76.90
71367;DHT22;60030;52.274;8.040;2022-07-29T00:22:20;19.10;76.60
71367;DHT22;60030;52.274;8.040;2022-07-29T00:24:47;18.80;77.50
71367;DHT22;60030;52.274;8.040;2022-07-29T00:27:15;18.80;77.80
71367;DHT22;60030;52.274;8.040;2022-07-29T00:29:42;18.90;77.40
71367;DHT22;60030;52.274;8.040;2022-07-29T00:32:09;18.80;78.00
71367;DHT22;60030;52.274;8.040;2022-07-29T00:34:36;18.90;77.90
71367;DHT22;60030;52.274;8.040;2022-07-29T00:37:22;18.80;78.80
71367;DHT22;60030;52.274;8.040;2022-07-29T00:39:49;19.00;77.70
71367;DHT22;60030;52.274;8.040;2022-07-29T00:42:16;18.80;77.70
71367;DHT22;60030;52.274;8.040;2022-07-29T00:44:44;18.60;78.60
71367;DHT22;60030;52.274;8.040;2022-07-29T00:47:12;18.70;78.50
71367;DHT22;60030;52.274;8.040;2022-07-29T00:49:39;18.60;78.90
71367;DHT22;60030;52.274;8.040;2022-07-29T00:52:08;18.60;79.00
71367;DHT22;60030;52.274;8.040;2022-07-29T00:54:38;18.70;78.90
71367;DHT22;60030;52.274;8.040;2022-07-29T00:57:06;18.80;78.60
71367;DHT22;60030;52.274;8.040;2022-07-29T00:59:33;18.80;78.30
71367;DHT22;60030;52.274;8.040;2022-07-29T01:02:01;18.80;78.70
71367;DHT22;60030;52.274;8.040;2022-07-29T01:04:28;18.80;78.50
71367;DHT22;60030;52.274;8.040;2022-07-29T01:06:55;18.90;78.30
71367;DHT22;60030;52.274;8.040;2022-07-29T01:09:23;18.80;78.50
71367;DHT22;60030;52.274;8.040;2022-07-29T01:11:52;18.80;78.40
71367;DHT22;60030;52.274;8.040;2022-07-29T01:14:21;18.60;79.30
71367;DHT22;60030;52.274;8.040;2022-07-29T01:16:52;18.60;79.30
71367;DHT22;60030;52.274;8.040;2022-07-29T01:19:39;18.60;79.40
71367;DHT22;60030;52.274;8.040;2022-07-29T01:22:24;18.50;79.70
71367;DHT22;60030;52.274;8.040;2022-07-29T01:25:10;18.50;79.50
71367;DHT22;60030;52.274;8.040;2022-07-29T01:27:56;18.40;80.50
71367;DHT22;60030;52.274;8.040;2022-07-29T01:30:32;18.50;80.50
71367;DHT22;60030;52.274;8.040;2022-07-29T01:33:06;18.30;81.20
71367;DHT22;60030;52.274;8.040;2022-07-29T01:35:38;18.20;81.40
71367;DHT22;60030;52.274;8.040;2022-07-29T01:38:11;18.30;81.10
71367;DHT22;60030;52.274;8.040;2022-07-29T01:40:43;18.30;81.40
71367;DHT22;60030;52.274;8.040;2022-07-29T01:43:14;18.50;80.70
71367;DHT22;60030;52.274;8.040;2022-07-29T01:45:45;18.50;80.60
71367;DHT22;60030;52.274;8.040;2022-07-29T01:48:16;18.60;80.10
71367;DHT22;60030;52.274;8.040;2022-07-29T01:50:47;18.50;80.60
71367;DHT22;60030;52.274;8.040;2022-07-29T01:53:23;18.40;80.80
71367;DHT22;60030;52.274;8.040;2022-07-29T01:55:53;18.60;80.50
71367;DHT22;60030;52.274;8.040;2022-07-29T01:58:22;18.60;80.50
71367;DHT22;60030;52.274;8.040;2022-07-29T02:00:52;18.70;80.50
71367;DHT22;60030;52.274;8.040;2022-07-29T02:03:21;18.60;81.10
71367;DHT22;60030;52.274;8.040;2022-07-29T02:05:50;18.50;80.70
71367;DHT22;60030;52.274;8.040;2022-07-29T02:08:19;18.50;81.40
71367;DHT22;60030;52.274;8.040;2022-07-29T02:10:48;18.50;81.30
71367;DHT22;60030;52.274;8.040;2022-07-29T02:13:17;18.60;80.70
71367;DHT22;60030;52.274;8.040;2022-07-29T02:15:44;18.00;82.50
71367;DHT22;60030;52.274;8.040;2022-07-29T02:18:16;18.10;82.90
71367;DHT22;60030;52.274;8.040;2022-07-29T02:20:46;18.30;81.90
71367;DHT22;60030;52.274;8.040;2022-07-29T02:23:18;18.10;82.60
71367;DHT22;60030;52.274;8.040;2022-07-29T02:25:48;18.10;82.60
71367;DHT22;60030;52.274;8.040;2022-07-29T02:28:16;18.20;82.60
71367;DHT22;60030;52.274;8.040;2022-07-29T02:30:45;18.20;82.60
71367;DHT22;60030;52.274;8.040;2022-07-29T02:33:15;18.30;82.40
71367;DHT22;60030;52.274;8.040;2022-07-29T02:35:45;18.30;82.60
71367;DHT22;60030;52.274;8.040;2022-07-29T02:38:15;18.20;82.90
71367;DHT22;60030;52.274;8.040;2022-07-29T02:41:03;18.30;83.10
71367;DHT22;60030;52.274;8.040;2022-07-29T02:43:33;18.20;83.70
71367;DHT22;60030;52.274;8.040;2022-07-29T02:46:03;18.20;83.50
71367;DHT22;60030;52.274;8.040;2022-07-29T02:48:37;18.20;83.50
71367;DHT22;60030;52.274;8.040;2022-07-29T02:51:08;18.20;83.20
71367;DHT22;60030;52.274;8.040;2022-07-29T02:53:35;18.20;83.20
71367;DHT22;60030;52.274;8.040;2022-07-29T02:56:07;18.20;83.30
71367;DHT22;60030;52.274;8.040;2022-07-29T02:58:38;18.30;82.90
71367;DHT22;60030;52.274;8.040;2022-07-29T03:01:10;18.10;83.40
71367;DHT22;60030;52.274;8.040;2022-07-29T03:03:39;18.10;83.80
71367;DHT22;60030;52.274;8.040;2022-07-29T03:06:09;17.90;84.50
71367;DHT22;60030;52.274;8.040;2022-07-29T03:08:37;17.90;84.80
71367;DHT22;60030;52.274;8.040;2022-07-29T03:11:04;17.80;85.30
71367;DHT22;60030;52.274;8.040;2022-07-29T03:13:32;17.80;85.20
71367;DHT22;60030;52.274;8.040;2022-07-29T03:15:59;18.00;84.70
71367;DHT22;60030;52.274;8.040;2022-07-29T03:18:27;18.00;84.30
71367;DHT22;60030;52.274;8.040;2022-07-29T03:20:55;18.10;84.20
71367;DHT22;60030;52.274;8.040;2022-07-29T03:23:23;18.00;84.40
71367;DHT22;60030;52.274;8.040;2022-07-29T03:25:53;18.00;85.30
71367;DHT22;60030;52.274;8.040;2022-07-29T03:28:21;18.00;84.90
71367;DHT22;60030;52.274;8.040;2022-07-29T03:30:49;18.10;84.60
71367;DHT22;60030;52.274;8.040;2022-07-29T03:33:16;17.90;85.40
71367;DHT22;60030;52.274;8.040;2022-07-29T03:35:43;17.70;86.10
71367;DHT22;60030;52.274;8.040;2022-07-29T03:38:11;17.90;85.80
71367;DHT22;60030;52.274;8.040;2022-07-29T03:40:42;18.00;85.30
71367;DHT22;60030;52.274;8.040;2022-07-29T03:43:10;17.60;86.70
71367;DHT22;60030;52.274;8.040;2022-07-29T03:45:38;17.60;87.60
71367;DHT22;60030;52.274;8.040;2022-07-29T03:48:13;17.80;86.80
71367;DHT22;60030;52.274;8.040;2022-07-29T03:50:42;17.80;86.30
71367;DHT22;60030;52.274;8.040;2022-07-29T03:53:10;17.90;86.10
71367;DHT22;60030;52.274;8.040;2022-07-29T03:55:41;17.60;87.50
71367;DHT22;60030;52.274;8.040;2022-07-29T03:58:08;17.30;88.50
71367;DHT22;60030;52.274;8.040;2022-07-29T04:00:37;17.50;88.20
71367;DHT22;60030;52.274;8.040;2022-07-29T04:03:05;17.80;87.10
71367;DHT22;60030;52.274;8.040;2022-07-29T04:05:32;17.90;86.70
71367;DHT22;60030;52.274;8.040;2022-07-29T04:07:59;17.90;86.50
71367;DHT22;60030;52.274;8.040;2022-07-29T04:10:28;18.00;86.10
71367;DHT22;60030;52.274;8.040;2022-07-29T04:12:55;17.90;86.30
71367;DHT22;60030;52.274;8.040;2022-07-29T04:15:22;17.80;86.50
71367;DHT22;60030;52.274;8.040;2022-07-29T04:17:49;17.70;87.00
71367;DHT22;60030;52.274;8.040;2022-07-29T04:20:16;17.80;87.00
71367;DHT22;60030;52.274;8.040;2022-07-29T04:22:43;17.90;86.80
71367;DHT22;60030;52.274;8.040;2022-07-29T04:25:10;18.00;86.90
71367;DHT22;60030;52.274;8.040;2022-07-29T04:27:38;18.00;86.50
71367;DHT22;60030;52.274;8.040;2022-07-29T04:30:26;18.00;86.30
71367;DHT22;60030;52.274;8.040;2022-07-29T04:32:53;18.10;86.00
71367;DHT22;60030;52.274;8.040;2022-07-29T04:35:20;18.10;86.10
71367;DHT22;60030;52.274;8.040;2022-07-29T04:37:47;17.80;86.70
71367;DHT22;60030;52.274;8.040;2022-07-29T04:40:14;17.80;86.90
71367;DHT22;60030;52.274;8.040;2022-07-29T04:42:42;17.90;86.30
71367;DHT22;60030;52.274;8.040;2022-07-29T04:45:09;17.90;86.30
71367;DHT22;60030;52.274;8.040;2022-07-29T04:47:36;18.00;86.60
71367;DHT22;60030;52.274;8.040;2022-07-29T04:50:04;18.10;86.40
71367;DHT22;60030;52.274;8.040;2022-07-29T04:52:32;18.10;86.10
71367;DHT22;60030;52.274;8.040;2022-07-29T04:55:00;18.20;86.30
71367;DHT22;60030;52.274;8.040;2022-07-29T04:57:27;18.20;86.20
71367;DHT22;60030;52.274;8.040;2022-07-29T04:59:56;17.90;87.30
71367;DHT22;60030;52.274;8.040;2022-07-29T05:02:23;17.70;87.60
71367;DHT22;60030;52.274;8.040;2022-07-29T05:04:50;17.90;87.20
71367;DHT22;60030;52.274;8.040;2022-07-29T05:07:17;17.90;87.20
71367;DHT22;60030;52.274;8.040;2022-07-29T05:09:44;18.00;87.20
71367;DHT22;60030;52.274;8.040;2022-07-29T05:12:11;17.80;87.20
71367;DHT22;60030;52.274;8.040;2022-07-29T05:14:38;18.10;87.20
71367;DHT22;60030;52.274;8.040;2022-07-29T05:17:07;18.30;86.50
71367;DHT22;60030;52.274;8.040;2022-07-29T05:19:34;18.30;86.60
71367;DHT22;60030;52.274;8.040;2022-07-29T05:22:01;18.40;86.10
71367;DHT22;60030;52.274;8.040;2022-07-29T05:24:28;18.30;87.00
71367;DHT22;60030;52.274;8.040;2022-07-29T05:26:55;18.30;86.60
71367;DHT22;60030;52.274;8.040;2022-07-29T05:29:22;18.10;86.80
71367;DHT22;60030;52.274;8.040;2022-07-29T05:31:49;18.10;87.20
71367;DHT22;60030;52.274;8.040;2022-07-29T05:34:18;18.00;87.50
71367;DHT22;60030;52.274;8.040;2022-07-29T05:36:46;18.00;87.60
71367;DHT22;60030;52.274;8.040;2022-07-29T05:39:13;18.10;87.10
71367;DHT22;60030;52.274;8.040;2022-07-29T05:41:40;18.10;87.30
71367;DHT22;60030;52.274;8.040;2022-07-29T05:44:07;18.30;86.90
71367;DHT22;60030;52.274;8.040;2022-07-29T05:46:34;18.30;87.20
71367;DHT22;60030;52.274;8.040;2022-07-29T05:49:01;18.40;86.80
71367;DHT22;60030;52.274;8.040;2022-07-29T05:51:30;18.40;86.70
71367;DHT22;60030;52.274;8.040;2022-07-29T05:53:57;18.30;87.20
71367;DHT22;60030;52.274;8.040;2022-07-29T05:56:24;18.40;87.10
71367;DHT22;60030;52.274;8.040;2022-07-29T05:58:51;18.50;86.60
71367;DHT22;60030;52.274;8.040;2022-07-29T06:01:19;18.40;86.70
71367;DHT22;60030;52.274;8.040;2022-07-29T06:03:46;18.40;86.50
71367;DHT22;60030;52.274;8.040;2022-07-29T06:06:13;18.50;85.90
71367;DHT22;60030;52.274;8.040;2022-07-29T06:08:41;18.30;87.00
71367;DHT22;60030;52.274;8.040;2022-07-29T06:11:08;18.30;87.20
71367;DHT22;60030;52.274;8.040;2022-07-29T06:13:35;18.30;87.50
71367;DHT22;60030;52.274;8.040;2022-07-29T06:16:02;18.30;87.90
71367;DHT22;60030;52.274;8.040;2022-07-29T06:18:30;18.40;87.40
71367;DHT22;60030;52.274;8.040;2022-07-29T06:20:57;18.70;86.90
71367;DHT22;60030;52.274;8.040;2022-07-29T06:23:24;18.60;87.30
71367;DHT22;60030;52.274;8.040;2022-07-29T06:25:53;18.70;87.10
71367;DHT22;60030;52.274;8.040;2022-07-29T06:28:20;18.80;86.40
71367;DHT22;60030;52.274;8.040;2022-07-29T06:30:47;18.80;86.70
71367;DHT22;60030;52.274;8.040;2022-07-29T06:33:16;19.00;86.20
71367;DHT22;60030;52.274;8.040;2022-07-29T06:35:44;19.20;85.80
71367;DHT22;60030;52.274;8.040;2022-07-29T06:38:13;19.40;85.20
71367;DHT22;60030;52.274;8.040;2022-07-29T06:40:41;19.50;85.00
71367;DHT22;60030;52.274;8.040;2022-07-29T06:43:30;19.50;84.70
71367;DHT22;60030;52.274;8.040;2022-07-29T06:46:00;19.50;85.00
71367;DHT22;60030;52.274;8.040;2022-07-29T06:48:28;19.40;84.70
71367;DHT22;60030;52.274;8.040;2022-07-29T06:50:55;19.60;84.50
71367;DHT22;60030;52.274;8.040;2022-07-29T06:53:23;19.80;83.70
71367;DHT22;60030;52.274;8.040;2022-07-29T06:55:50;19.90;83.90
71367;DHT22;60030;52.274;8.040;2022-07-29T06:58:17;20.10;83.60
71367;DHT22;60030;52.274;8.040;2022-07-29T07:00:56;20.10;82.70
71367;DHT22;60030;52.274;8.040;2022-07-29T07:03:23;19.90;83.40
71367;DHT22;60030;52.274;8.040;2022-07-29T07:05:52;20.00;82.80
71367;DHT22;60030;52.274;8.040;2022-07-29T07:08:20;20.20;82.60
71367;DHT22;60030;52.274;8.040;2022-07-29T07:10:48;20.10;82.10
71367;DHT22;60030;52.274;8.040;2022-07-29T07:13:15;20.20;82.40
71367;DHT22;60030;52.274;8.040;2022-07-29T07:15:43;20.30;82.30
71367;DHT22;60030;52.274;8.040;2022-07-29T07:18:11;20.30;82.30
71367;DHT22;60030;52.274;8.040;2022-07-29T07:20:39;20.30;82.80
71367;DHT22;60030;52.274;8.040;2022-07-29T07:23:06;20.30;82.50
71367;DHT22;60030;52.274;8.040;2022-07-29T07:25:34;20.40;81.70
71367;DHT22;60030;52.274;8.040;2022-07-29T07:28:01;20.50;81.80
71367;DHT22;60030;52.274;8.040;2022-07-29T07:30:28;20.50;82.00
71367;DHT22;60030;52.274;8.040;2022-07-29T07:32:56;20.60;82.10
71367;DHT22;60030;52.274;8.040;2022-07-29T07:35:25;20.70;82.00
71367;DHT22;60030;52.274;8.040;2022-07-29T07:37:53;20.80;81.50
71367;DHT22;60030;52.274;8.040;2022-07-29T07:40:20;20.90;80.80
71367;DHT22;60030;52.274;8.040;2022-07-29T07:42:47;21.00;80.10
71367;DHT22;60030;52.274;8.040;2022-07-29T07:45:15;21.10;79.30
71367;DHT22;60030;52.274;8.040;2022-07-29T07:47:42;21.20;79.20
71367;DHT22;60030;52.274;8.040;2022-07-29T07:50:11;21.30;79.70
71367;DHT22;60030;52.274;8.040;2022-07-29T07:52:47;21.40;79.20
71367;DHT22;60030;52.274;8.040;2022-07-29T07:55:15;21.40;77.90
71367;DHT22;60030;52.274;8.040;2022-07-29T07:57:42;21.50;78.90
71367;DHT22;60030;52.274;8.040;2022-07-29T08:00:10;21.60;78.30
71367;DHT22;60030;52.274;8.040;2022-07-29T08:02:38;21.60;77.80
71367;DHT22;60030;52.274;8.040;2022-07-29T08:05:06;21.60;77.10
71367;DHT22;60030;52.274;8.040;2022-07-29T08:07:34;21.60;78.10
71367;DHT22;60030;52.274;8.040;2022-07-29T08:10:03;21.70;78.20
71367;DHT22;60030;52.274;8.040;2022-07-29T08:12:30;21.70;78.10
71367;DHT22;60030;52.274;8.040;2022-07-29T08:14:57;21.70;77.40
71367;DHT22;60030;52.274;8.040;2022-07-29T08:17:25;21.70;77.50
71367;DHT22;60030;52.274;8.040;2022-07-29T08:19:52;21.70;77.10
71367;DHT22;60030;52.274;8.040;2022-07-29T08:22:19;21.80;77.50
71367;DHT22;60030;52.274;8.040;2022-07-29T08:24:46;21.90;77.10
71367;DHT22;60030;52.274;8.040;2022-07-29T08:27:21;22.00;77.30
71367;DHT22;60030;52.274;8.040;2022-07-29T08:29:48;22.00;76.90
71367;DHT22;60030;52.274;8.040;2022-07-29T08:32:15;22.10;76.70
71367;DHT22;60030;52.274;8.040;2022-07-29T08:34:42;22.10;76.70
71367;DHT22;60030;52.274;8.040;2022-07-29T08:37:12;22.10;76.20
71367;DHT22;60030;52.274;8.040;2022-07-29T08:39:39;22.10;75.60
71367;DHT22;60030;52.274;8.040;2022-07-29T08:42:07;22.10;75.70
71367;DHT22;60030;52.274;8.040;2022-07-29T08:44:36;22.10;75.70
71367;DHT22;60030;52.274;8.040;2022-07-29T08:47:04;22.20;75.80
71367;DHT22;60030;52.274;8.040;2022-07-29T08:49:33;22.30;76.70
71367;DHT22;60030;52.274;8.040;2022-07-29T08:52:01;22.40;75.10
71367;DHT22;60030;52.274;8.040;2022-07-29T08:54:28;22.40;75.20
71367;DHT22;60030;52.274;8.040;2022-07-29T08:56:56;22.50;75.30
71367;DHT22;60030;52.274;8.040;2022-07-29T08:59:25;22.60;75.60
71367;DHT22;60030;52.274;8.040;2022-07-29T09:01:57;22.90;75.60
71367;DHT22;60030;52.274;8.040;2022-07-29T09:04:30;23.00;74.10
71367;DHT22;60030;52.274;8.040;2022-07-29T09:07:00;23.20;74.00
71367;DHT22;60030;52.274;8.040;2022-07-29T09:09:30;23.40;73.60
71367;DHT22;60030;52.274;8.040;2022-07-29T09:11:59;23.40;72.00
71367;DHT22;60030;52.274;8.040;2022-07-29T09:14:26;23.60;73.00
71367;DHT22;60030;52.274;8.040;2022-07-29T09:16:55;23.60;71.90
71367;DHT22;60030;52.274;8.040;2022-07-29T09:19:25;23.60;72.20
71367;DHT22;60030;52.274;8.040;2022-07-29T09:21:53;23.90;72.60
71367;DHT22;60030;52.274;8.040;2022-07-29T09:24:43;24.10;71.90
71367;DHT22;60030;52.274;8.040;2022-07-29T09:27:19;24.40;69.30
71367;DHT22;60030;52.274;8.040;2022-07-29T09:29:48;24.50;69.20
71367;DHT22;60030;52.274;8.040;2022-07-29T09:32:23;24.50;67.80
71367;DHT22;60030;52.274;8.040;2022-07-29T09:34:50;24.40;68.10
71367;DHT22;60030;52.274;8.040;2022-07-29T09:37:26;24.50;68.10
71367;DHT22;60030;52.274;8.040;2022-07-29T09:39:53;24.70;69.00
71367;DHT22;60030;52.274;8.040;2022-07-29T09:42:28;24.60;67.50
71367;DHT22;60030;52.274;8.040;2022-07-29T09:44:55;24.80;66.30
71367;DHT22;60030;52.274;8.040;2022-07-29T09:47:40;24.80;66.60
71367;DHT22;60030;52.274;8.040;2022-07-29T09:50:08;24.90;66.60
71367;DHT22;60030;52.274;8.040;2022-07-29T09:52:45;24.90;66.00
71367;DHT22;60030;52.274;8.040;2022-07-29T09:55:12;24.80;66.10
71367;DHT22;60030;52.274;8.040;2022-07-29T09:57:39;24.80;66.40
71367;DHT22;60030;52.274;8.040;2022-07-29T10:00:08;24.70;66.20
71367;DHT22;60030;52.274;8.040;2022-07-29T10:02:42;24.70;67.20
71367;DHT22;60030;52.274;8.040;2022-07-29T10:05:17;24.60;66.90
71367;DHT22;60030;52.274;8.040;2022-07-29T10:07:47;24.40;66.90
71367;DHT22;60030;52.274;8.040;2022-07-29T10:10:22;24.40;68.20
71367;DHT22;60030;52.274;8.040;2022-07-29T10:12:52;24.30;68.40
71367;DHT22;60030;52.274;8.040;2022-07-29T10:15:22;24.30;69.20
71367;DHT22;60030;52.274;8.040;2022-07-29T10:17:51;24.30;69.00
71367;DHT22;60030;52.274;8.040;2022-07-29T10:20:19;24.40;69.00
71367;DHT22;60030;52.274;8.040;2022-07-29T10:22:46;24.40;69.60
71367;DHT22;60030;52.274;8.040;2022-07-29T10:25:14;24.40;69.20
71367;DHT22;60030;52.274;8.040;2022-07-29T10:27:42;24.60;69.40
71367;DHT22;60030;52.274;8.040;2022-07-29T10:30:10;24.60;68.50
71367;DHT22;60030;52.274;8.040;2022-07-29T10:32:57;24.70;66.50
71367;DHT22;60030;52.274;8.040;2022-07-29T10:35:44;24.80;65.40
71367;DHT22;60030;52.274;8.040;2022-07-29T10:41:33;24.70;66.40
71367;DHT22;60030;52.274;8.040;2022-07-29T10:44:05;24.80;65.80
71367;DHT22;60030;52.274;8.040;2022-07-29T10:46:35;24.80;65.00
71367;DHT22;60030;52.274;8.040;2022-07-29T10:49:12;25.00;65.60
71367;DHT22;60030;52.274;8.040;2022-07-29T10:51:57;24.90;65.30
71367;DHT22;60030;52.274;8.040;2022-07-29T10:54:55;24.90;63.60
71367;DHT22;60030;52.274;8.040;2022-07-29T10:57:27;24.90;63.20
71367;DHT22;60030;52.274;8.040;2022-07-29T11:00:30;24.90;64.10
71367;DHT22;60030;52.274;8.040;2022-07-29T11:02:57;24.70;63.70
71367;DHT22;60030;52.274;8.040;2022-07-29T11:05:27;24.50;65.00
71367;DHT22;60030;52.274;8.040;2022-07-29T11:14:02;24.20;65.10
71367;DHT22;60030;52.274;8.040;2022-07-29T11:16:58;24.30;66.20
71367;DHT22;60030;52.274;8.040;2022-07-29T11:19:26;24.40;65.80
71367;DHT22;60030;52.274;8.040;2022-07-29T11:21:55;24.40;66.40
71367;DHT22;60030;52.274;8.040;2022-07-29T11:24:23;24.40;66.00
71367;DHT22;60030;52.274;8.040;2022-07-29T11:27:14;24.30;66.80
71367;DHT22;60030;52.274;8.040;2022-07-29T11:29:53;24.30;66.50
71367;DHT22;60030;52.274;8.040;2022-07-29T11:32:22;24.30;66.60
71367;DHT22;60030;52.274;8.040;2022-07-29T11:35:13;24.40;67.30
71367;DHT22;60030;52.274;8.040;2022-07-29T11:37:42;24.50;66.50
71367;DHT22;60030;52.274;8.040;2022-07-29T11:40:16;24.50;66.10
71367;DHT22;60030;52.274;8.040;2022-07-29T11:42:46;24.50;65.80
71367;DHT22;60030;52.274;8.040;2022-07-29T11:45:15;24.50;66.40
71367;DHT22;60030;52.274;8.040;2022-07-29T11:47:48;24.50;66.80
71367;DHT22;60030;52.274;8.040;2022-07-29T11:50:17;24.60;66.80
71367;DHT22;60030;52.274;8.040;2022-07-29T11:52:47;24.70;67.50
71367;DHT22;60030;52.274;8.040;2022-07-29T11:55:16;24.70;66.40
71367;DHT22;60030;52.274;8.040;2022-07-29T11:57:47;24.80;66.00
71367;DHT22;60030;52.274;8.040;2022-07-29T12:00:23;25.00;66.10
71367;DHT22;60030;52.274;8.040;2022-07-29T12:02:50;25.10;65.00
71367;DHT22;60030;52.274;8.040;2022-07-29T12:05:18;25.10;65.60
71367;DHT22;60030;52.274;8.040;2022-07-29T12:07:48;25.20;66.00
71367;DHT22;60030;52.274;8.040;2022-07-29T12:10:15;25.20;64.80
71367;DHT22;60030;52.274;8.040;2022-07-29T12:12:42;25.20;65.70
71367;DHT22;60030;52.274;8.040;2022-07-29T12:15:14;25.20;65.00
71367;DHT22;60030;52.274;8.040;2022-07-29T12:17:43;25.20;64.40
71367;DHT22;60030;52.274;8.040;2022-07-29T12:20:10;25.20;64.80
71367;DHT22;60030;52.274;8.040;2022-07-29T12:22:41;25.10;64.80
71367;DHT22;60030;52.274;8.040;2022-07-29T12:25:12;25.00;65.60
71367;DHT22;60030;52.274;8.040;2022-07-29T12:27:42;24.90;65.90
71367;DHT22;60030;52.274;8.040;2022-07-29T12:30:11;24.80;66.10
71367;DHT22;60030;52.274;8.040;2022-07-29T12:32:40;24.80;66.20
71367;DHT22;60030;52.274;8.040;2022-07-29T12:35:10;24.80;65.20
71367;DHT22;60030;52.274;8.040;2022-07-29T12:37:40;24.70;66.40
71367;DHT22;60030;52.274;8.040;2022-07-29T12:40:09;24.60;65.20
71367;DHT22;60030;52.274;8.040;2022-07-29T12:42:38;24.60;66.10
71367;DHT22;60030;52.274;8.040;2022-07-29T12:45:06;24.40;66.20
71367;DHT22;60030;52.274;8.040;2022-07-29T12:47:39;24.30;66.70
71367;DHT22;60030;52.274;8.040;2022-07-29T12:50:17;24.20;67.20
71367;DHT22;60030;52.274;8.040;2022-07-29T12:52:45;24.20;68.00
71367;DHT22;60030;52.274;8.040;2022-07-29T12:55:13;24.10;67.50
71367;DHT22;60030;52.274;8.040;2022-07-29T12:57:50;24.10;69.00
71367;DHT22;60030;52.274;8.040;2022-07-29T13:00:22;24.00;69.50
71367;DHT22;60030;52.274;8.040;2022-07-29T13:02:55;23.90;71.40
71367;DHT22;60030;52.274;8.040;2022-07-29T13:05:23;23.90;71.80
71367;DHT22;60030;52.274;8.040;2022-07-29T13:07:50;23.90;71.70
71367;DHT22;60030;52.274;8.040;2022-07-29T13:10:19;23.90;72.90
71367;DHT22;60030;52.274;8.040;2022-07-29T13:13:04;23.80;72.70
71367;DHT22;60030;52.274;8.040;2022-07-29T13:15:32;23.70;75.20
71367;DHT22;60030;52.274;8.040;2022-07-29T13:18:00;23.60;75.60
71367;DHT22;60030;52.274;8.040;2022-07-29T13:20:29;23.60;77.20
71367;DHT22;60030;52.274;8.040;2022-07-29T13:22:56;23.70;79.20
71367;DHT22;60030;52.274;8.040;2022-07-29T13:25:26;23.60;80.40
71367;DHT22;60030;52.274;8.040;2022-07-29T13:27:53;23.60;83.50
71367;DHT22;60030;52.274;8.040;2022-07-29T13:30:23;23.50;85.20
71367;DHT22;60030;52.274;8.040;2022-07-29T13:32:51;23.50;85.20
71367;DHT22;60030;52.274;8.040;2022-07-29T13:35:19;23.50;87.80
71367;DHT22;60030;52.274;8.040;2022-07-29T13:37:46;23.40;90.00
71367;DHT22;60030;52.274;8.040;2022-07-29T13:40:14;23.40;88.30
71367;DHT22;60030;52.274;8.040;2022-07-29T13:42:41;23.40;90.70
71367;DHT22;60030;52.274;8.040;2022-07-29T13:45:09;23.40;91.60
71367;DHT22;60030;52.274;8.040;2022-07-29T13:47:38;23.40;92.00
71367;DHT22;60030;52.274;8.040;2022-07-29T13:50:07;23.30;91.40
71367;DHT22;60030;52.274;8.040;2022-07-29T13:52:36;23.30;90.90
71367;DHT22;60030;52.274;8.040;2022-07-29T13:55:04;23.20;90.90
71367;DHT22;60030;52.274;8.040;2022-07-29T13:57:31;23.10;91.20
71367;DHT22;60030;52.274;8.040;2022-07-29T13:59:58;23.10;90.40
71367;DHT22;60030;52.274;8.040;2022-07-29T14:02:25;23.10;90.50
71367;DHT22;60030;52.274;8.040;2022-07-29T14:04:54;23.10;90.30
71367;DHT22;60030;52.274;8.040;2022-07-29T14:07:21;23.10;91.10
71367;DHT22;60030;52.274;8.040;2022-07-29T14:09:48;23.10;91.60
71367;DHT22;60030;52.274;8.040;2022-07-29T14:12:15;23.10;90.50
71367;DHT22;60030;52.274;8.040;2022-07-29T14:14:43;23.10;90.10
71367;DHT22;60030;52.274;8.040;2022-07-29T14:17:10;23.10;89.70
71367;DHT22;60030;52.274;8.040;2022-07-29T14:19:37;23.10;89.50
71367;DHT22;60030;52.274;8.040;2022-07-29T14:22:07;23.20;89.10
71367;DHT22;60030;52.274;8.040;2022-07-29T14:24:35;23.20;88.20
71367;DHT22;60030;52.274;8.040;2022-07-29T14:27:03;23.30;87.10
71367;DHT22;60030;52.274;8.040;2022-07-29T14:29:30;23.40;87.80
71367;DHT22;60030;52.274;8.040;2022-07-29T14:31:57;23.30;87.10
71367;DHT22;60030;52.274;8.040;2022-07-29T14:34:24;23.40;87.10
71367;DHT22;60030;52.274;8.040;2022-07-29T14:36:51;23.30;86.20
71367;DHT22;60030;52.274;8.040;2022-07-29T14:39:22;23.50;85.90
71367;DHT22;60030;52.274;8.040;2022-07-29T14:41:50;23.50;86.00
71367;DHT22;60030;52.274;8.040;2022-07-29T14:44:17;23.60;85.10
71367;DHT22;60030;52.274;8.040;2022-07-29T14:46:44;23.50;85.30
71367;DHT22;60030;52.274;8.040;2022-07-29T14:49:11;23.60;86.90
71367;DHT22;60030;52.274;8.040;2022-07-29T14:51:38;23.70;86.70
71367;DHT22;60030;52.274;8.040;2022-07-29T14:54:05;23.70;86.20
71367;DHT22;60030;52.274;8.040;2022-07-29T14:56:34;23.80;87.00
71367;DHT22;60030;52.274;8.040;2022-07-29T14:59:01;23.80;86.90
71367;DHT22;60030;52.274;8.040;2022-07-29T15:01:28;23.80;87.10
71367;DHT22;60030;52.274;8.040;2022-07-29T15:03:55;23.90;87.40
71367;DHT22;60030;52.274;8.040;2022-07-29T15:06:22;23.90;87.40
71367;DHT22;60030;52.274;8.040;2022-07-29T15:08:49;23.80;87.40
71367;DHT22;60030;52.274;8.040;2022-07-29T15:11:16;23.90;86.50
71367;DHT22;60030;52.274;8.040;2022-07-29T15:13:45;23.90;85.40
71367;DHT22;60030;52.274;8.040;2022-07-29T15:16:12;24.10;85.40
71367;DHT22;60030;52.274;8.040;2022-07-29T15:18:39;24.20;84.60
71367;DHT22;60030;52.274;8.040;2022-07-29T15:21:06;24.40;84.00
71367;DHT22;60030;52.274;8.040;2022-07-29T15:23:33;24.50;83.40
71367;DHT22;60030;52.274;8.040;2022-07-29T15:26:02;24.60;84.10
71367;DHT22;60030;52.274;8.040;2022-07-29T15:28:29;24.60;85.40
71367;DHT22;60030;52.274;8.040;2022-07-29T15:30:57;24.70;85.50
71367;DHT22;60030;52.274;8.040;2022-07-29T15:33:25;24.80;86.50
71367;DHT22;60030;52.274;8.040;2022-07-29T15:35:53;25.20;86.10
71367;DHT22;60030;52.274;8.040;2022-07-29T15:38:22;25.40;84.00
71367;DHT22;60030;52.274;8.040;2022-07-29T15:40:49;25.70;83.10
71367;DHT22;60030;52.274;8.040;2022-07-29T15:43:16;25.90;82.40
71367;DHT22;60030;52.274;8.040;2022-07-29T15:45:43;25.90;82.30
71367;DHT22;60030;52.274;8.040;2022-07-29T15:48:33;25.90;81.30
71367;DHT22;60030;52.274;8.040;2022-07-29T15:51:04;25.90;80.40
71367;DHT22;60030;52.274;8.040;2022-07-29T15:53:31;25.90;80.10